sensor_id;sensor_type;location;lat;lon;timestamp;temperature;humidity
16301;DHT22;8258;51.020;4.248;2023-04-23T00:01:16;9.20;99.90
16301;DHT22;8258;51.020;4.248;2023-04-23T00:03:45;9.20;99.90
16301;DHT22;8258;51.020;4.248;2023-04-23T00:06:14;9.20;99.90
16301;DHT22;8258;51.020;4.248;2023-04-23T00:08:42;9.30;99.90
16301;DHT22;8258;51.020;4.248;2023-04-23T00:11:09;9.30;99.90
16301;DHT22;8258;51.020;4.248;2023-04-23T00:13:38;9.30;99.90
16301;DHT22;8258;51.020;4.248;2023-04-23T00:16:06;9.30;99.90
16301;DHT22;8258;51.020;4.248;2023-04-23T00:18:35;9.30;99.90
16301;DHT22;8258;51.020;4.248;2023-04-23T00:21:02;9.30;99.90
16301;DHT22;8258;51.020;4.248;2023-04-23T00:23:29;9.30;99.90
16301;DHT22;8258;51.020;4.248;2023-04-23T00:25:56;9.30;99.90
16301;DHT22;8258;51.020;4.248;2023-04-23T00:28:23;9.40;99.90
16301;DHT22;8258;51.020;4.248;2023-04-23T00:30:51;9.30;99.90
16301;DHT22;8258;51.020;4.248;2023-04-23T00:33:19;9.40;99.90
16301;DHT22;8258;51.020;4.248;2023-04-23T00:35:46;9.30;99.90
16301;DHT22;8258;51.020;4.248;2023-04-23T00:38:13;9.40;99.90
16301;DHT22;8258;51.020;4.248;2023-04-23T00:40:40;9.40;99.90
16301;DHT22;8258;51.020;4.248;2023-04-23T00:43:07;9.40;99.90
16301;DHT22;8258;51.020;4.248;2023-04-23T00:45:34;9.50;99.90
16301;DHT22;8258;51.020;4.248;2023-04-23T00:48:03;9.50;99.90
16301;DHT22;8258;51.020;4.248;2023-04-23T00:50:30;9.50;99.90
16301;DHT22;8258;51.020;4.248;2023-04-23T00:52:57;9.60;99.90
16301;DHT22;8258;51.020;4.248;2023-04-23T00:55:24;9.60;99.90
16301;DHT22;8258;51.020;4.248;2023-04-23T00:57:51;9.60;99.90
16301;DHT22;8258;51.020;4.248;2023-04-23T01:00:18;9.60;99.90
16301;DHT22;8258;51.020;4.248;2023-04-23T01:02:46;9.60;99.90
16301;DHT22;8258;51.020;4.248;2023-04-23T01:05:17;9.70;99.90
16301;DHT22;8258;51.020;4.248;2023-04-23T01:07:45;9.60;99.90
16301;DHT22;8258;51.020;4.248;2023-04-23T01:10:13;9.60;99.90
16301;DHT22;8258;51.020;4.248;2023-04-23T01:12:40;9.70;99.90
16301;DHT22;8258;51.020;4.248;2023-04-23T01:15:08;9.70;99.90
16301;DHT22;8258;51.020;4.248;2023-04-23T01:17:35;9.70;99.90
16301;DHT22;8258;51.020;4.248;2023-04-23T01:20:03;9.90;99.90
16301;DHT22;8258;51.020;4.248;2023-04-23T01:22:34;9.90;99.90
16301;DHT22;8258;51.020;4.248;2023-04-23T01:25:02;10.00;99.90
16301;DHT22;8258;51.020;4.248;2023-04-23T01:27:31;10.10;99.90
16301;DHT22;8258;51.020;4.248;2023-04-23T01:30:01;10.10;99.90
16301;DHT22;8258;51.020;4.248;2023-04-23T01:32:29;10.10;99.90
16301;DHT22;8258;51.020;4.248;2023-04-23T01:34:57;10.20;99.90
16301;DHT22;8258;51.020;4.248;2023-04-23T01:37:24;10.20;99.90
16301;DHT22;8258;51.020;4.248;2023-04-23T01:39:53;10.20;99.90
16301;DHT22;8258;51.020;4.248;2023-04-23T01:42:21;10.20;99.90
16301;DHT22;8258;51.020;4.248;2023-04-23T01:44:49;10.20;99.90
16301;DHT22;8258;51.020;4.248;2023-04-23T01:47:18;10.20;99.90
16301;DHT22;8258;51.020;4.248;2023-04-23T01:49:45;10.20;99.90
16301;DHT22;8258;51.020;4.248;2023-04-23T01:52:12;10.20;99.90
16301;DHT22;8258;51.020;4.248;2023-04-23T01:54:39;10.30;99.90
16301;DHT22;8258;51.020;4.248;2023-04-23T01:57:08;10.30;99.90
16301;DHT22;8258;51.020;4.248;2023-04-23T01:59:36;10.30;99.90
16301;DHT22;8258;51.020;4.248;2023-04-23T02:02:03;10.20;99.90
16301;DHT22;8258;51.020;4.248;2023-04-23T02:04:30;10.20;99.90
16301;DHT22;8258;51.020;4.248;2023-04-23T02:06:57;10.20;99.90
16301;DHT22;8258;51.020;4.248;2023-04-23T02:09:24;10.20;99.90
16301;DHT22;8258;51.020;4.248;2023-04-23T02:11:51;10.20;99.90
16301;DHT22;8258;51.020;4.248;2023-04-23T02:14:19;10.20;99.90
16301;DHT22;8258;51.020;4.248;2023-04-23T02:16:46;10.20;99.90
16301;DHT22;8258;51.020;4.248;2023-04-23T02:19:14;10.10;99.90
16301;DHT22;8258;51.020;4.248;2023-04-23T02:21:41;10.10;99.90
16301;DHT22;8258;51.020;4.248;2023-04-23T02:24:08;10.00;99.90
16301;DHT22;8258;51.020;4.248;2023-04-23T02:26:35;9.90;99.90
16301;DHT22;8258;51.020;4.248;2023-04-23T02:29:02;9.80;99.90
16301;DHT22;8258;51.020;4.248;2023-04-23T02:31:30;9.80;99.90
16301;DHT22;8258;51.020;4.248;2023-04-23T02:33:57;9.70;99.90
16301;DHT22;8258;51.020;4.248;2023-04-23T02:36:24;9.60;99.90
16301;DHT22;8258;51.020;4.248;2023-04-23T02:38:53;9.60;99.90
16301;DHT22;8258;51.020;4.248;2023-04-23T02:41:20;9.60;99.90
16301;DHT22;8258;51.020;4.248;2023-04-23T02:43:47;9.50;99.90
16301;DHT22;8258;51.020;4.248;2023-04-23T02:46:13;9.50;99.90
16301;DHT22;8258;51.020;4.248;2023-04-23T02:48:42;9.40;99.90
16301;DHT22;8258;51.020;4.248;2023-04-23T02:51:10;9.40;99.90
16301;DHT22;8258;51.020;4.248;2023-04-23T02:53:37;9.30;99.90
16301;DHT22;8258;51.020;4.248;2023-04-23T02:56:05;9.30;99.90
16301;DHT22;8258;51.020;4.248;2023-04-23T02:58:32;9.20;99.90
16301;DHT22;8258;51.020;4.248;2023-04-23T03:00:59;9.20;99.90
16301;DHT22;8258;51.020;4.248;2023-04-23T03:03:27;9.20;99.90
16301;DHT22;8258;51.020;4.248;2023-04-23T03:05:58;9.20;99.90
16301;DHT22;8258;51.020;4.248;2023-04-23T03:08:25;9.10;99.90
16301;DHT22;8258;51.020;4.248;2023-04-23T03:10:52;9.10;99.90
16301;DHT22;8258;51.020;4.248;2023-04-23T03:13:19;9.10;99.90
16301;DHT22;8258;51.020;4.248;2023-04-23T03:15:46;9.00;99.90
16301;DHT22;8258;51.020;4.248;2023-04-23T03:18:13;9.10;99.90
16301;DHT22;8258;51.020;4.248;2023-04-23T03:20:40;9.10;99.90
16301;DHT22;8258;51.020;4.248;2023-04-23T03:23:08;9.00;99.90
16301;DHT22;8258;51.020;4.248;2023-04-23T03:25:35;9.10;99.90
16301;DHT22;8258;51.020;4.248;2023-04-23T03:28:02;9.00;99.90
16301;DHT22;8258;51.020;4.248;2023-04-23T03:30:30;8.90;99.90
16301;DHT22;8258;51.020;4.248;2023-04-23T03:32:58;8.90;99.90
16301;DHT22;8258;51.020;4.248;2023-04-23T03:35:26;8.80;99.90
16301;DHT22;8258;51.020;4.248;2023-04-23T03:37:53;8.80;99.90
16301;DHT22;8258;51.020;4.248;2023-04-23T03:40:22;8.80;99.90
16301;DHT22;8258;51.020;4.248;2023-04-23T03:42:49;8.80;99.90
16301;DHT22;8258;51.020;4.248;2023-04-23T03:45:16;8.70;99.90
16301;DHT22;8258;51.020;4.248;2023-04-23T03:47:43;8.70;99.90
16301;DHT22;8258;51.020;4.248;2023-04-23T03:50:10;8.70;99.90
16301;DHT22;8258;51.020;4.248;2023-04-23T03:52:38;8.70;99.90
16301;DHT22;8258;51.020;4.248;2023-04-23T03:55:06;8.70;99.90
16301;DHT22;8258;51.020;4.248;2023-04-23T03:57:35;8.70;99.90
16301;DHT22;8258;51.020;4.248;2023-04-23T04:00:02;8.70;99.90
16301;DHT22;8258;51.020;4.248;2023-04-23T04:02:29;8.70;99.90
16301;DHT22;8258;51.020;4.248;2023-04-23T04:04:56;8.70;99.90
16301;DHT22;8258;51.020;4.248;2023-04-23T04:07:23;8.70;99.90
16301;DHT22;8258;51.020;4.248;2023-04-23T04:09:50;8.70;99.90
16301;DHT22;8258;51.020;4.248;2023-04-23T04:12:17;8.70;99.90
16301;DHT22;8258;51.020;4.248;2023-04-23T04:14:45;8.60;99.90
16301;DHT22;8258;51.020;4.248;2023-04-23T04:17:12;8.60;99.90
16301;DHT22;8258;51.020;4.248;2023-04-23T04:19:40;8.60;99.90
16301;DHT22;8258;51.020;4.248;2023-04-23T04:22:07;8.60;99.90
16301;DHT22;8258;51.020;4.248;2023-04-23T04:24:34;8.60;99.90
16301;DHT22;8258;51.020;4.248;2023-04-23T04:27:02;8.60;99.90
16301;DHT22;8258;51.020;4.248;2023-04-23T04:29:29;8.60;99.90
16301;DHT22;8258;51.020;4.248;2023-04-23T04:31:58;8.60;99.90
16301;DHT22;8258;51.020;4.248;2023-04-23T04:34:25;8.60;99.90
16301;DHT22;8258;51.020;4.248;2023-04-23T04:36:52;8.60;99.90
16301;DHT22;8258;51.020;4.248;2023-04-23T04:39:19;8.60;99.90
16301;DHT22;8258;51.020;4.248;2023-04-23T04:41:46;8.60;99.90
16301;DHT22;8258;51.020;4.248;2023-04-23T04:44:13;8.60;99.90
16301;DHT22;8258;51.020;4.248;2023-04-23T04:46:41;8.60;99.90
16301;DHT22;8258;51.020;4.248;2023-04-23T04:49:10;8.60;99.90
16301;DHT22;8258;51.020;4.248;2023-04-23T04:51:38;8.70;99.90
16301;DHT22;8258;51.020;4.248;2023-04-23T04:54:06;8.60;99.90
16301;DHT22;8258;51.020;4.248;2023-04-23T04:56:34;8.60;99.90
16301;DHT22;8258;51.020;4.248;2023-04-23T04:59:01;8.70;99.90
16301;DHT22;8258;51.020;4.248;2023-04-23T05:01:28;8.70;99.90
16301;DHT22;8258;51.020;4.248;2023-04-23T05:03:56;8.70;99.90
16301;DHT22;8258;51.020;4.248;2023-04-23T05:06:24;8.60;99.90
16301;DHT22;8258;51.020;4.248;2023-04-23T05:08:53;8.70;99.90
16301;DHT22;8258;51.020;4.248;2023-04-23T05:11:20;8.80;99.90
16301;DHT22;8258;51.020;4.248;2023-04-23T05:13:47;8.80;99.90
16301;DHT22;8258;51.020;4.248;2023-04-23T05:16:14;8.80;99.90
16301;DHT22;8258;51.020;4.248;2023-04-23T05:18:41;8.90;99.90
16301;DHT22;8258;51.020;4.248;2023-04-23T05:21:08;8.90;99.90
16301;DHT22;8258;51.020;4.248;2023-04-23T05:23:37;8.90;99.90
16301;DHT22;8258;51.020;4.248;2023-04-23T05:26:04;8.90;99.90
16301;DHT22;8258;51.020;4.248;2023-04-23T05:28:30;9.00;99.90
16301;DHT22;8258;51.020;4.248;2023-04-23T05:30:57;9.00;99.90
16301;DHT22;8258;51.020;4.248;2023-04-23T05:33:25;9.10;99.90
16301;DHT22;8258;51.020;4.248;2023-04-23T05:35:52;9.10;99.90
16301;DHT22;8258;51.020;4.248;2023-04-23T05:38:20;9.20;99.90
16301;DHT22;8258;51.020;4.248;2023-04-23T05:40:48;9.30;99.90
16301;DHT22;8258;51.020;4.248;2023-04-23T05:43:15;9.30;99.90
16301;DHT22;8258;51.020;4.248;2023-04-23T05:45:42;9.40;99.90
16301;DHT22;8258;51.020;4.248;2023-04-23T05:48:09;9.50;99.90
16301;DHT22;8258;51.020;4.248;2023-04-23T05:50:36;9.50;99.90
16301;DHT22;8258;51.020;4.248;2023-04-23T05:53:03;9.60;99.90
16301;DHT22;8258;51.020;4.248;2023-04-23T05:55:31;9.70;99.90
16301;DHT22;8258;51.020;4.248;2023-04-23T05:57:59;9.70;99.90
16301;DHT22;8258;51.020;4.248;2023-04-23T06:00:27;9.80;99.90
16301;DHT22;8258;51.020;4.248;2023-04-23T06:02:54;9.90;99.90
16301;DHT22;8258;51.020;4.248;2023-04-23T06:05:21;10.00;99.90
16301;DHT22;8258;51.020;4.248;2023-04-23T06:07:48;10.00;99.90
16301;DHT22;8258;51.020;4.248;2023-04-23T06:10:15;10.10;99.90
16301;DHT22;8258;51.020;4.248;2023-04-23T06:12:42;10.20;99.90
16301;DHT22;8258;51.020;4.248;2023-04-23T06:15:11;10.30;99.90
16301;DHT22;8258;51.020;4.248;2023-04-23T06:17:38;10.40;99.90
16301;DHT22;8258;51.020;4.248;2023-04-23T06:20:07;10.50;99.90
16301;DHT22;8258;51.020;4.248;2023-04-23T06:22:36;10.60;99.90
16301;DHT22;8258;51.020;4.248;2023-04-23T06:25:04;10.80;99.90
16301;DHT22;8258;51.020;4.248;2023-04-23T06:27:31;10.90;99.90
16301;DHT22;8258;51.020;4.248;2023-04-23T06:29:58;11.00;99.90
16301;DHT22;8258;51.020;4.248;2023-04-23T06:32:27;11.10;99.90
16301;DHT22;8258;51.020;4.248;2023-04-23T06:34:54;11.20;99.90
16301;DHT22;8258;51.020;4.248;2023-04-23T06:37:21;11.70;99.90
16301;DHT22;8258;51.020;4.248;2023-04-23T06:39:48;12.10;99.90
16301;DHT22;8258;51.020;4.248;2023-04-23T06:42:15;12.40;99.90
16301;DHT22;8258;51.020;4.248;2023-04-23T06:44:42;13.00;99.90
16301;DHT22;8258;51.020;4.248;2023-04-23T06:47:11;13.40;99.90
16301;DHT22;8258;51.020;4.248;2023-04-23T06:49:40;13.80;99.90
16301;DHT22;8258;51.020;4.248;2023-04-23T06:52:07;14.20;99.90
16301;DHT22;8258;51.020;4.248;2023-04-23T06:54:34;14.60;99.90
16301;DHT22;8258;51.020;4.248;2023-04-23T06:57:01;14.40;99.90
16301;DHT22;8258;51.020;4.248;2023-04-23T06:59:28;14.70;99.90
16301;DHT22;8258;51.020;4.248;2023-04-23T07:01:54;14.80;99.90
16301;DHT22;8258;51.020;4.248;2023-04-23T07:04:21;14.50;99.90
16301;DHT22;8258;51.020;4.248;2023-04-23T07:06:50;14.50;99.90
16301;DHT22;8258;51.020;4.248;2023-04-23T07:09:17;14.50;99.90
16301;DHT22;8258;51.020;4.248;2023-04-23T07:11:44;14.80;99.90
16301;DHT22;8258;51.020;4.248;2023-04-23T07:14:11;15.30;99.90
16301;DHT22;8258;51.020;4.248;2023-04-23T07:16:38;15.70;99.90
16301;DHT22;8258;51.020;4.248;2023-04-23T07:19:04;16.20;99.90
16301;DHT22;8258;51.020;4.248;2023-04-23T07:21:31;16.00;99.90
16301;DHT22;8258;51.020;4.248;2023-04-23T07:24:00;16.20;99.90
16301;DHT22;8258;51.020;4.248;2023-04-23T07:26:31;16.10;99.90
16301;DHT22;8258;51.020;4.248;2023-04-23T07:28:58;16.10;99.90
16301;DHT22;8258;51.020;4.248;2023-04-23T07:31:25;16.60;99.90
16301;DHT22;8258;51.020;4.248;2023-04-23T07:33:53;17.20;99.90
16301;DHT22;8258;51.020;4.248;2023-04-23T07:36:20;16.90;99.90
16301;DHT22;8258;51.020;4.248;2023-04-23T07:38:47;16.40;99.90
16301;DHT22;8258;51.020;4.248;2023-04-23T07:41:16;16.10;99.90
16301;DHT22;8258;51.020;4.248;2023-04-23T07:43:43;16.00;99.90
16301;DHT22;8258;51.020;4.248;2023-04-23T07:46:11;16.00;99.90
16301;DHT22;8258;51.020;4.248;2023-04-23T07:48:38;16.30;99.90
16301;DHT22;8258;51.020;4.248;2023-04-23T07:51:05;16.50;99.90
16301;DHT22;8258;51.020;4.248;2023-04-23T07:53:32;16.60;99.90
16301;DHT22;8258;51.020;4.248;2023-04-23T07:55:59;16.70;99.90
16301;DHT22;8258;51.020;4.248;2023-04-23T07:58:28;16.60;99.90
16301;DHT22;8258;51.020;4.248;2023-04-23T08:00:55;16.60;99.90
16301;DHT22;8258;51.020;4.248;2023-04-23T08:03:22;16.60;99.90
16301;DHT22;8258;51.020;4.248;2023-04-23T08:05:49;16.50;99.90
16301;DHT22;8258;51.020;4.248;2023-04-23T08:08:16;16.40;99.90
16301;DHT22;8258;51.020;4.248;2023-04-23T08:10:44;16.60;99.90
16301;DHT22;8258;51.020;4.248;2023-04-23T08:13:11;16.60;99.90
16301;DHT22;8258;51.020;4.248;2023-04-23T08:15:39;16.70;99.90
16301;DHT22;8258;51.020;4.248;2023-04-23T08:18:06;16.30;99.90
16301;DHT22;8258;51.020;4.248;2023-04-23T08:20:34;16.30;99.90
16301;DHT22;8258;51.020;4.248;2023-04-23T08:23:01;16.60;99.90
16301;DHT22;8258;51.020;4.248;2023-04-23T08:25:28;16.70;99.90
16301;DHT22;8258;51.020;4.248;2023-04-23T08:27:55;17.60;99.90
16301;DHT22;8258;51.020;4.248;2023-04-23T08:30:22;17.70;99.90
16301;DHT22;8258;51.020;4.248;2023-04-23T08:32:51;17.60;99.90
16301;DHT22;8258;51.020;4.248;2023-04-23T08:35:19;17.40;99.90
16301;DHT22;8258;51.020;4.248;2023-04-23T08:37:46;17.10;99.90
16301;DHT22;8258;51.020;4.248;2023-04-23T08:40:13;17.00;99.90
16301;DHT22;8258;51.020;4.248;2023-04-23T08:42:42;16.80;99.90
16301;DHT22;8258;51.020;4.248;2023-04-23T08:45:11;16.40;99.90
16301;DHT22;8258;51.020;4.248;2023-04-23T08:47:39;16.60;99.90
16301;DHT22;8258;51.020;4.248;2023-04-23T08:50:10;16.80;99.90
16301;DHT22;8258;51.020;4.248;2023-04-23T08:52:39;16.90;99.90
16301;DHT22;8258;51.020;4.248;2023-04-23T08:55:08;17.00;99.90
16301;DHT22;8258;51.020;4.248;2023-04-23T08:57:40;17.00;99.90
16301;DHT22;8258;51.020;4.248;2023-04-23T09:00:08;16.40;99.90
16301;DHT22;8258;51.020;4.248;2023-04-23T09:02:36;16.50;99.90
16301;DHT22;8258;51.020;4.248;2023-04-23T09:05:06;16.50;99.90
16301;DHT22;8258;51.020;4.248;2023-04-23T09:07:35;16.30;99.90
16301;DHT22;8258;51.020;4.248;2023-04-23T09:10:02;16.10;99.90
16301;DHT22;8258;51.020;4.248;2023-04-23T09:12:30;16.30;99.90
16301;DHT22;8258;51.020;4.248;2023-04-23T09:14:58;16.10;99.90
16301;DHT22;8258;51.020;4.248;2023-04-23T09:17:27;16.00;99.90
16301;DHT22;8258;51.020;4.248;2023-04-23T09:19:54;16.00;99.90
16301;DHT22;8258;51.020;4.248;2023-04-23T09:22:47;16.10;99.90
16301;DHT22;8258;51.020;4.248;2023-04-23T09:25:15;16.00;99.90
16301;DHT22;8258;51.020;4.248;2023-04-23T09:27:44;15.90;99.90
16301;DHT22;8258;51.020;4.248;2023-04-23T09:30:12;16.00;99.90
16301;DHT22;8258;51.020;4.248;2023-04-23T09:32:40;16.20;99.90
16301;DHT22;8258;51.020;4.248;2023-04-23T09:35:09;16.10;99.90
16301;DHT22;8258;51.020;4.248;2023-04-23T09:37:41;16.00;99.90
16301;DHT22;8258;51.020;4.248;2023-04-23T09:40:13;16.00;99.90
16301;DHT22;8258;51.020;4.248;2023-04-23T09:42:41;15.80;99.90
16301;DHT22;8258;51.020;4.248;2023-04-23T09:45:12;15.60;99.90
16301;DHT22;8258;51.020;4.248;2023-04-23T09:47:41;15.40;99.90
16301;DHT22;8258;51.020;4.248;2023-04-23T09:50:08;15.40;99.90
16301;DHT22;8258;51.020;4.248;2023-04-23T09:52:37;15.40;99.90
16301;DHT22;8258;51.020;4.248;2023-04-23T09:55:06;15.40;99.90
16301;DHT22;8258;51.020;4.248;2023-04-23T09:57:36;15.40;99.90
16301;DHT22;8258;51.020;4.248;2023-04-23T10:00:13;15.60;99.90
16301;DHT22;8258;51.020;4.248;2023-04-23T10:02:45;15.60;99.90
16301;DHT22;8258;51.020;4.248;2023-04-23T10:05:14;15.60;99.90
16301;DHT22;8258;51.020;4.248;2023-04-23T10:07:43;15.60;99.90
16301;DHT22;8258;51.020;4.248;2023-04-23T10:10:11;15.50;99.90
16301;DHT22;8258;51.020;4.248;2023-04-23T10:12:41;15.60;99.90
16301;DHT22;8258;51.020;4.248;2023-04-23T10:15:09;15.70;99.90
16301;DHT22;8258;51.020;4.248;2023-04-23T10:17:37;15.90;99.90
16301;DHT22;8258;51.020;4.248;2023-04-23T10:20:05;16.00;99.90
16301;DHT22;8258;51.020;4.248;2023-04-23T10:22:34;15.90;99.90
16301;DHT22;8258;51.020;4.248;2023-04-23T10:25:04;16.10;99.90
16301;DHT22;8258;51.020;4.248;2023-04-23T10:27:36;16.60;99.90
16301;DHT22;8258;51.020;4.248;2023-04-23T10:30:06;16.60;99.90
16301;DHT22;8258;51.020;4.248;2023-04-23T10:32:35;16.60;99.90
16301;DHT22;8258;51.020;4.248;2023-04-23T10:35:04;16.40;99.90
16301;DHT22;8258;51.020;4.248;2023-04-23T10:37:32;16.50;99.90
16301;DHT22;8258;51.020;4.248;2023-04-23T10:40:05;16.50;99.90
16301;DHT22;8258;51.020;4.248;2023-04-23T10:42:36;16.60;99.90
16301;DHT22;8258;51.020;4.248;2023-04-23T10:45:11;16.40;99.90
16301;DHT22;8258;51.020;4.248;2023-04-23T10:47:41;16.20;99.90
16301;DHT22;8258;51.020;4.248;2023-04-23T10:50:18;16.00;99.90
16301;DHT22;8258;51.020;4.248;2023-04-23T10:52:45;16.20;99.90
16301;DHT22;8258;51.020;4.248;2023-04-23T10:55:16;16.10;99.90
16301;DHT22;8258;51.020;4.248;2023-04-23T10:57:58;15.90;99.90
16301;DHT22;8258;51.020;4.248;2023-04-23T11:00:27;15.80;99.90
16301;DHT22;8258;51.020;4.248;2023-04-23T11:02:55;15.70;99.90
16301;DHT22;8258;51.020;4.248;2023-04-23T11:05:22;15.50;99.90
16301;DHT22;8258;51.020;4.248;2023-04-23T11:08:04;15.60;99.90
16301;DHT22;8258;51.020;4.248;2023-04-23T11:10:32;15.70;99.90
16301;DHT22;8258;51.020;4.248;2023-04-23T11:13:21;15.80;99.90
16301;DHT22;8258;51.020;4.248;2023-04-23T11:16:13;16.10;99.90
16301;DHT22;8258;51.020;4.248;2023-04-23T11:19:00;16.10;99.90
16301;DHT22;8258;51.020;4.248;2023-04-23T11:22:01;16.00;99.90
16301;DHT22;8258;51.020;4.248;2023-04-23T11:24:30;15.80;99.90
16301;DHT22;8258;51.020;4.248;2023-04-23T11:26:58;15.40;99.90
16301;DHT22;8258;51.020;4.248;2023-04-23T11:29:26;15.40;99.90
16301;DHT22;8258;51.020;4.248;2023-04-23T11:31:55;15.40;99.90
16301;DHT22;8258;51.020;4.248;2023-04-23T11:34:23;15.50;99.90
16301;DHT22;8258;51.020;4.248;2023-04-23T11:36:52;15.60;99.90
16301;DHT22;8258;51.020;4.248;2023-04-23T11:39:20;15.80;99.90
16301;DHT22;8258;51.020;4.248;2023-04-23T11:41:48;16.10;99.90
16301;DHT22;8258;51.020;4.248;2023-04-23T11:44:17;15.90;99.90
16301;DHT22;8258;51.020;4.248;2023-04-23T11:46:45;15.80;99.90
16301;DHT22;8258;51.020;4.248;2023-04-23T11:49:15;15.80;99.90
16301;DHT22;8258;51.020;4.248;2023-04-23T11:51:43;16.00;99.90
16301;DHT22;8258;51.020;4.248;2023-04-23T11:54:11;15.90;99.90
16301;DHT22;8258;51.020;4.248;2023-04-23T11:56:39;15.70;99.90
16301;DHT22;8258;51.020;4.248;2023-04-23T11:59:06;15.40;99.90
16301;DHT22;8258;51.020;4.248;2023-04-23T12:01:44;15.20;99.90
16301;DHT22;8258;51.020;4.248;2023-04-23T12:04:12;15.10;99.90
16301;DHT22;8258;51.020;4.248;2023-04-23T12:06:42;15.00;99.90
16301;DHT22;8258;51.020;4.248;2023-04-23T12:09:10;14.90;99.90
16301;DHT22;8258;51.020;4.248;2023-04-23T12:11:38;14.70;99.90
16301;DHT22;8258;51.020;4.248;2023-04-23T12:14:05;14.60;99.90
16301;DHT22;8258;51.020;4.248;2023-04-23T12:16:37;14.50;99.90
16301;DHT22;8258;51.020;4.248;2023-04-23T12:19:07;14.60;99.90
16301;DHT22;8258;51.020;4.248;2023-04-23T12:21:47;14.30;99.90
16301;DHT22;8258;51.020;4.248;2023-04-23T12:24:14;14.10;99.90
16301;DHT22;8258;51.020;4.248;2023-04-23T12:26:41;14.00;99.90
16301;DHT22;8258;51.020;4.248;2023-04-23T12:29:08;13.90;99.90
16301;DHT22;8258;51.020;4.248;2023-04-23T12:31:38;13.80;99.90
16301;DHT22;8258;51.020;4.248;2023-04-23T12:34:06;13.60;99.90
16301;DHT22;8258;51.020;4.248;2023-04-23T12:36:35;13.40;99.90
16301;DHT22;8258;51.020;4.248;2023-04-23T12:39:21;13.30;99.90
16301;DHT22;8258;51.020;4.248;2023-04-23T12:41:50;13.10;99.90
16301;DHT22;8258;51.020;4.248;2023-04-23T12:44:17;13.00;99.90
16301;DHT22;8258;51.020;4.248;2023-04-23T12:46:48;12.80;99.90
16301;DHT22;8258;51.020;4.248;2023-04-23T12:49:15;12.80;99.90
16301;DHT22;8258;51.020;4.248;2023-04-23T12:51:42;12.80;99.90
16301;DHT22;8258;51.020;4.248;2023-04-23T12:54:10;12.80;99.90
16301;DHT22;8258;51.020;4.248;2023-04-23T12:56:39;12.80;99.90
16301;DHT22;8258;51.020;4.248;2023-04-23T12:59:06;12.80;99.90
16301;DHT22;8258;51.020;4.248;2023-04-23T13:01:33;12.90;99.90
16301;DHT22;8258;51.020;4.248;2023-04-23T13:04:00;12.80;99.90
16301;DHT22;8258;51.020;4.248;2023-04-23T13:06:27;12.80;99.90
16301;DHT22;8258;51.020;4.248;2023-04-23T13:08:54;12.60;99.90
16301;DHT22;8258;51.020;4.248;2023-04-23T13:11:21;12.70;99.90
16301;DHT22;8258;51.020;4.248;2023-04-23T13:13:50;12.80;99.90
16301;DHT22;8258;51.020;4.248;2023-04-23T13:16:17;12.80;99.90
16301;DHT22;8258;51.020;4.248;2023-04-23T13:18:44;12.90;99.90
16301;DHT22;8258;51.020;4.248;2023-04-23T13:21:11;12.90;99.90
16301;DHT22;8258;51.020;4.248;2023-04-23T13:23:38;12.90;99.90
16301;DHT22;8258;51.020;4.248;2023-04-23T13:26:05;13.00;99.90
16301;DHT22;8258;51.020;4.248;2023-04-23T13:28:33;13.00;99.90
16301;DHT22;8258;51.020;4.248;2023-04-23T13:31:03;13.00;99.90
16301;DHT22;8258;51.020;4.248;2023-04-23T13:33:31;13.00;99.90
16301;DHT22;8258;51.020;4.248;2023-04-23T13:35:59;13.00;99.90
16301;DHT22;8258;51.020;4.248;2023-04-23T13:38:26;13.00;99.90
16301;DHT22;8258;51.020;4.248;2023-04-23T13:40:53;12.90;99.90
16301;DHT22;8258;51.020;4.248;2023-04-23T13:43:21;13.20;99.90
16301;DHT22;8258;51.020;4.248;2023-04-23T13:45:47;13.10;99.90
16301;DHT22;8258;51.020;4.248;2023-04-23T13:48:16;13.10;99.90
16301;DHT22;8258;51.020;4.248;2023-04-23T13:50:44;13.10;99.90
16301;DHT22;8258;51.020;4.248;2023-04-23T13:53:11;13.10;99.90
16301;DHT22;8258;51.020;4.248;2023-04-23T13:55:38;13.00;99.90
16301;DHT22;8258;51.020;4.248;2023-04-23T13:58:06;13.00;99.90
16301;DHT22;8258;51.020;4.248;2023-04-23T14:00:33;12.70;99.90
16301;DHT22;8258;51.020;4.248;2023-04-23T14:03:00;12.50;99.90
16301;DHT22;8258;51.020;4.248;2023-04-23T14:05:29;12.40;99.90
16301;DHT22;8258;51.020;4.248;2023-04-23T14:07:56;12.30;99.90
16301;DHT22;8258;51.020;4.248;2023-04-23T14:10:23;12.30;99.90
16301;DHT22;8258;51.020;4.248;2023-04-23T14:12:50;12.30;99.90
16301;DHT22;8258;51.020;4.248;2023-04-23T14:15:19;12.30;99.90
16301;DHT22;8258;51.020;4.248;2023-04-23T14:17:46;12.10;99.90
16301;DHT22;8258;51.020;4.248;2023-04-23T14:20:14;12.10;99.90
16301;DHT22;8258;51.020;4.248;2023-04-23T14:22:48;12.10;99.90
16301;DHT22;8258;51.020;4.248;2023-04-23T14:25:23;12.10;99.90
16301;DHT22;8258;51.020;4.248;2023-04-23T14:27:55;12.20;99.90
16301;DHT22;8258;51.020;4.248;2023-04-23T14:30:22;12.20;99.90
16301;DHT22;8258;51.020;4.248;2023-04-23T14:32:52;12.30;99.90
16301;DHT22;8258;51.020;4.248;2023-04-23T14:35:21;12.40;99.90
16301;DHT22;8258;51.020;4.248;2023-04-23T14:37:50;12.50;99.90
16301;DHT22;8258;51.020;4.248;2023-04-23T14:40:17;12.60;99.90
16301;DHT22;8258;51.020;4.248;2023-04-23T14:42:46;12.80;99.90
16301;DHT22;8258;51.020;4.248;2023-04-23T14:45:14;13.00;99.90
16301;DHT22;8258;51.020;4.248;2023-04-23T14:47:42;13.20;99.90
16301;DHT22;8258;51.020;4.248;2023-04-23T14:50:14;13.40;99.90
16301;DHT22;8258;51.020;4.248;2023-04-23T14:52:41;13.50;99.90
16301;DHT22;8258;51.020;4.248;2023-04-23T14:55:12;13.50;99.90
16301;DHT22;8258;51.020;4.248;2023-04-23T14:57:39;13.50;99.90
16301;DHT22;8258;51.020;4.248;2023-04-23T15:00:07;13.60;99.90
16301;DHT22;8258;51.020;4.248;2023-04-23T15:02:37;13.60;99.90
16301;DHT22;8258;51.020;4.248;2023-04-23T15:05:05;13.60;99.90
16301;DHT22;8258;51.020;4.248;2023-04-23T15:07:33;13.50;99.90
16301;DHT22;8258;51.020;4.248;2023-04-23T15:10:00;13.50;99.90
16301;DHT22;8258;51.020;4.248;2023-04-23T15:12:53;13.50;99.90
16301;DHT22;8258;51.020;4.248;2023-04-23T15:15:26;13.60;99.90
16301;DHT22;8258;51.020;4.248;2023-04-23T15:17:53;13.80;99.90
16301;DHT22;8258;51.020;4.248;2023-04-23T15:20:20;13.90;99.90
16301;DHT22;8258;51.020;4.248;2023-04-23T15:22:48;14.10;99.90
16301;DHT22;8258;51.020;4.248;2023-04-23T15:25:15;14.30;99.90
16301;DHT22;8258;51.020;4.248;2023-04-23T15:27:42;14.30;99.90
16301;DHT22;8258;51.020;4.248;2023-04-23T15:30:12;14.10;99.90
16301;DHT22;8258;51.020;4.248;2023-04-23T15:32:39;14.10;99.90
16301;DHT22;8258;51.020;4.248;2023-04-23T15:35:06;13.90;99.90
16301;DHT22;8258;51.020;4.248;2023-04-23T15:37:33;14.00;99.90
16301;DHT22;8258;51.020;4.248;2023-04-23T15:40:00;14.00;99.90
16301;DHT22;8258;51.020;4.248;2023-04-23T15:42:27;13.90;99.90
16301;DHT22;8258;51.020;4.248;2023-04-23T15:44:54;13.90;99.90
16301;DHT22;8258;51.020;4.248;2023-04-23T15:47:23;14.00;99.90
16301;DHT22;8258;51.020;4.248;2023-04-23T15:49:50;14.00;99.90
16301;DHT22;8258;51.020;4.248;2023-04-23T15:52:17;14.00;99.90
16301;DHT22;8258;51.020;4.248;2023-04-23T15:54:44;14.00;99.90
16301;DHT22;8258;51.020;4.248;2023-04-23T15:57:11;13.90;99.90